CheckWX is a tool to help pilots better visualize weather data.  It is not intended as a substitute for an official pre-flight weather briefing.

18:48:32 UTC

ETSI TAF
Ingolstadt Manching Airport
Manching, Germany
TAF ETSI 221115Z 2212/2221 33008KT 9999 NSW BKN035 BECMG 2214/2216 07008KT 9999 NSW BKN035 CANCEL 1220

Feb-22@
12:00 UTC

Feb-22 @ 12:00 UTC

Feb-22@
14:00 UTC

Feb-22 @ 14:00 UTC

TAF ETSI 221115Z 2212/2221 33008KT 9999 NSW BKN035

Expired

Wind
  • 330° at 8 KTS
Conditions
No significant weather
Cloud Levels
  • Broken at 3,500' AGL

Feb-22@
14:00 UTC

Feb-22 @ 14:00 UTC

Feb-22@
21:00 UTC

Feb-22 @ 21:00 UTC

BECMG 2214/2216 07008KT 9999 NSW BKN035 CANCEL 1220

Becoming

BecomingConditions expected by Fri, Feb 22, 2019 @ 16:00 UTC

Wind
  • 070° at 8 KTS
Conditions
No significant weather
Cloud Levels
  • Broken at 3,500' AGL